Time;durP1;ratioP1;P1;durP2;ratioP2;P2;SDS_P1;SDS_P2;PMS_P1;PMS_P2;Temp;Humidity;BMP_temperature;BMP_pressure;BME280_temperature;BME280_humidity;BME280_pressure;Samples;Min_cycle;Max_cycle;Signal;HPM_P1;HPM_P2
2022/08/19 00:01:24;;;;;;;;;;;;;;;;;;6212400;23;19970;-70
2022/08/19 00:03:50;;;;;;;;;;;;;;;;;;6213024;23;19908;-67
2022/08/19 00:06:15;;;;;;;;;;;;;;;;;;6212709;23;19907;-67
2022/08/19 00:08:41;;;;;;;;;;;;;;;;;;6211008;23;19986;-67
2022/08/19 00:11:07;;;;;;;;;;;;;;;;;;6213175;23;19995;-68
2022/08/19 00:13:32;;;;;;;;;;;;;;;;;;6213199;23;19907;-68
2022/08/19 00:15:59;;;;;;;;;;;;;;;;;;6213399;23;20283;-69
2022/08/19 00:18:25;;;;;;;;;;;;;;;;;;6214126;23;19908;-68
2022/08/19 00:20:51;;;;;;;;;;;;;;;;;;6213062;23;19923;-68
2022/08/19 00:23:16;;;;;;;;;;;;;;;;;;6213013;23;20344;-68
2022/08/19 00:25:42;;;;;;;;;;;;;;;;;;6212411;23;19987;-68
2022/08/19 00:28:08;;;;;;;;;;;;;;;;;;6212749;23;19912;-69
2022/08/19 00:30:33;;;;;;;;;;;;;;;;;;6212419;23;19946;-68
2022/08/19 00:32:59;;;;;;;;;;;;;;;;;;6212892;23;19939;-69
2022/08/19 00:35:26;;;;;;;;;;;;;;;;;;6212375;23;19914;-69
2022/08/19 00:37:52;;;;;;;;;;;;;;;;;;6212847;23;19908;-68
2022/08/19 00:40:19;;;;;;;;;;;;;;;;;;6210699;23;19927;-68
2022/08/19 00:42:44;;;;;;;;;;;;;;;;;;6212303;23;19908;-68
2022/08/19 00:45:10;;;;;;;;;;;;;;;;;;6212534;23;20271;-68
2022/08/19 00:47:35;;;;;;;;;;;;;;;;;;6212661;23;19908;-67
2022/08/19 00:50:01;;;;;;;;;;;;;;;;;;6212508;23;19990;-68
2022/08/19 00:52:29;;;;;;;;;;;;;;;;;;6212385;23;19908;-67
2022/08/19 00:54:55;;;;;;;;;;;;;;;;;;6212243;23;19915;-68
2022/08/19 00:57:20;;;;;;;;;;;;;;;;;;6212588;23;20256;-67
2022/08/19 00:59:46;;;;;;;;;;;;;;;;;;6212016;23;19916;-67
2022/08/19 01:02:12;;;;;;;;;;;;;;;;;;6212327;23;19907;-67
2022/08/19 01:04:37;;;;;;;;;;;;;;;;;;6211825;23;19973;-67
2022/08/19 01:07:03;;;;;;;;;;;;;;;;;;6212179;23;20237;-68
2022/08/19 01:09:28;;;;;;;;;;;;;;;;;;6212111;23;19915;-67
2022/08/19 01:11:54;;;;;;;;;;;;;;;;;;6212343;23;20465;-68
2022/08/19 01:14:19;;;;;;;;;;;;;;;;;;6210842;23;20261;-67
2022/08/19 01:16:46;;;;;;;;;;;;;;;;;;6211871;23;20348;-69
2022/08/19 01:19:12;;;;;;;;;;;;;;;;;;6212325;23;19908;-68
2022/08/19 01:21:37;;;;;;;;;;;;;;;;;;6235201;23;19930;-68
2022/08/19 01:24:03;;;;;;;;;;;;;;;;;;6212369;23;20280;-69
2022/08/19 01:26:29;;;;;;;;;;;;;;;;;;6211842;23;19931;-69
2022/08/19 01:28:54;;;;;;;;;;;;;;;;;;6212261;23;19907;-68
2022/08/19 01:31:21;;;;;;;;;;;;;;;;;;6212175;23;19990;-68
2022/08/19 01:33:46;;;;;;;;;;;;;;;;;;6211752;23;20323;-68
2022/08/19 01:36:12;;;;;;;;;;;;;;;;;;6212153;23;19908;-67
2022/08/19 01:38:38;;;;;;;;;;;;;;;;;;6211916;23;20345;-68
2022/08/19 01:41:03;;;;;;;;;;;;;;;;;;6211863;23;19923;-69
2022/08/19 01:43:29;;;;;;;;;;;;;;;;;;6210610;23;19987;-68
2022/08/19 01:45:55;;;;;;;;;;;;;;;;;;6212588;23;19914;-67
2022/08/19 01:48:20;;;;;;;;;;;;;;;;;;6212840;23;20237;-69
2022/08/19 01:50:47;;;;;;;;;;;;;;;;;;6211801;23;20343;-68
2022/08/19 01:53:16;;;;;;;;;;;;;;;;;;6212022;23;19943;-67
2022/08/19 01:55:42;;;;;;;;;;;;;;;;;;6211541;23;19914;-68
2022/08/19 01:58:07;;;;;;;;;;;;;;;;;;6212201;23;20316;-68
2022/08/19 02:00:33;;;;;;;;;;;;;;;;;;6211522;23;19915;-68
2022/08/19 02:03:00;;;;;;;;;;;;;;;;;;6212106;23;19907;-69
2022/08/19 02:05:27;;;;;;;;;;;;;;;;;;6211991;23;19908;-68
2022/08/19 02:07:52;;;;;;;;;;;;;;;;;;6212102;23;19908;-69
2022/08/19 02:10:18;;;;;;;;;;;;;;;;;;6212032;23;19916;-68
2022/08/19 02:12:44;;;;;;;;;;;;;;;;;;6211556;23;20038;-67
2022/08/19 02:15:09;;;;;;;;;;;;;;;;;;6212367;23;20233;-68
2022/08/19 02:17:35;;;;;;;;;;;;;;;;;;6213673;23;19995;-69
2022/08/19 02:20:01;;;;;;;;;;;;;;;;;;6212316;23;19918;-67
2022/08/19 02:22:26;;;;;;;;;;;;;;;;;;6214206;23;19946;-68
2022/08/19 02:24:52;;;;;;;;;;;;;;;;;;6213652;23;19907;-68
2022/08/19 02:27:18;;;;;;;;;;;;;;;;;;6213805;23;19927;-67
2022/08/19 02:29:43;;;;;;;;;;;;;;;;;;6213667;23;19907;-69
2022/08/19 02:32:09;;;;;;;;;;;;;;;;;;6213837;23;19914;-69
2022/08/19 02:34:35;;;;;;;;;;;;;;;;;;6213532;23;19982;-68
2022/08/19 02:37:00;;;;;;;;;;;;;;;;;;6213789;23;19908;-67
2022/08/19 02:39:26;;;;;;;;;;;;;;;;;;6213757;23;20352;-69
2022/08/19 02:41:52;;;;;;;;;;;;;;;;;;6213269;23;19930;-67
2022/08/19 02:44:18;;;;;;;;;;;;;;;;;;6213716;23;19912;-66
2022/08/19 02:46:44;;;;;;;;;;;;;;;;;;6213252;23;20366;-68
2022/08/19 02:49:10;;;;;;;;;;;;;;;;;;6213623;23;19910;-67
2022/08/19 02:51:35;;;;;;;;;;;;;;;;;;6213158;23;19991;-69
2022/08/19 02:54:01;;;;;;;;;;;;;;;;;;6213543;23;20423;-68
2022/08/19 02:56:27;;;;;;;;;;;;;;;;;;6213592;23;19955;-68
2022/08/19 02:58:52;;;;;;;;;;;;;;;;;;6213394;23;20242;-68
2022/08/19 03:01:18;;;;;;;;;;;;;;;;;;6213296;23;19920;-69
2022/08/19 03:03:44;;;;;;;;;;;;;;;;;;6213314;23;19908;-68
2022/08/19 03:06:09;;;;;;;;;;;;;;;;;;6213520;23;19958;-69
2022/08/19 03:08:35;;;;;;;;;;;;;;;;;;6213192;23;19947;-69
2022/08/19 03:11:01;;;;;;;;;;;;;;;;;;6213521;23;20356;-68
2022/08/19 03:13:27;;;;;;;;;;;;;;;;;;6213586;23;20367;-68
2022/08/19 03:15:53;;;;;;;;;;;;;;;;;;6213094;23;20348;-67
2022/08/19 03:18:19;;;;;;;;;;;;;;;;;;6211905;23;19990;-68
2022/08/19 03:20:44;;;;;;;;;;;;;;;;;;6213225;23;19916;-69
2022/08/19 03:23:10;;;;;;;;;;;;;;;;;;6213481;23;19990;-67
2022/08/19 03:25:36;;;;;;;;;;;;;;;;;;6212887;23;19908;-70
2022/08/19 03:28:01;;;;;;;;;;;;;;;;;;6213281;23;19937;-68
2022/08/19 03:30:27;;;;;;;;;;;;;;;;;;6213144;23;19907;-67
2022/08/19 03:32:53;;;;;;;;;;;;;;;;;;6212933;23;19908;-67
2022/08/19 03:35:20;;;;;;;;;;;;;;;;;;6213218;23;19912;-69
2022/08/19 03:37:45;;;;;;;;;;;;;;;;;;6212756;23;19907;-68
2022/08/19 03:40:11;;;;;;;;;;;;;;;;;;6213271;23;19934;-69
2022/08/19 03:42:37;;;;;;;;;;;;;;;;;;6212432;23;19931;-69
2022/08/19 03:45:02;;;;;;;;;;;;;;;;;;6211734;23;19915;-68
2022/08/19 03:47:30;;;;;;;;;;;;;;;;;;6212967;23;19919;-68
2022/08/19 03:49:55;;;;;;;;;;;;;;;;;;6236274;23;19981;-70
2022/08/19 03:52:21;;;;;;;;;;;;;;;;;;6212923;23;20272;-69
2022/08/19 03:54:47;;;;;;;;;;;;;;;;;;6212615;23;19916;-69
2022/08/19 03:57:12;;;;;;;;;;;;;;;;;;6213060;23;19908;-69
2022/08/19 03:59:38;;;;;;;;;;;;;;;;;;6211170;23;19912;-67
2022/08/19 04:02:03;;;;;;;;;;;;;;;;;;6213627;23;20340;-68
2022/08/19 04:04:29;;;;;;;;;;;;;;;;;;6213041;23;20288;-68
2022/08/19 04:06:55;;;;;;;;;;;;;;;;;;6212436;23;19908;-69
2022/08/19 04:09:21;;;;;;;;;;;;;;;;;;6212885;23;20380;-68
2022/08/19 04:11:46;;;;;;;;;;;;;;;;;;6212500;23;19908;-68
2022/08/19 04:14:12;;;;;;;;;;;;;;;;;;6212855;23;19980;-68
2022/08/19 04:16:37;;;;;;;;;;;;;;;;;;6212359;23;19907;-69
2022/08/19 04:19:03;;;;;;;;;;;;;;;;;;6212862;23;19908;-68
2022/08/19 04:21:29;;;;;;;;;;;;;;;;;;6212502;23;20053;-68
2022/08/19 04:23:54;;;;;;;;;;;;;;;;;;6212597;23;19923;-68
2022/08/19 04:26:20;;;;;;;;;;;;;;;;;;6212665;23;20756;-69
2022/08/19 04:28:46;;;;;;;;;;;;;;;;;;6212430;23;19908;-68
2022/08/19 04:31:11;;;;;;;;;;;;;;;;;;6212511;23;19908;-68
2022/08/19 04:33:37;;;;;;;;;;;;;;;;;;6212195;23;19903;-69
2022/08/19 04:36:02;;;;;;;;;;;;;;;;;;6212569;23;19907;-69
2022/08/19 04:38:28;;;;;;;;;;;;;;;;;;6212622;23;19947;-68
2022/08/19 04:43:38;;;;;;;;;;;;;;;;;;6212179;23;19908;-70
2022/08/19 04:46:03;;;;;;;;;;;;;;;;;;6212486;23;19935;-68
2022/08/19 04:48:29;;;;;;;;;;;;;;;;;;6213510;23;19958;-69
2022/08/19 04:50:57;;;;;;;;;;;;;;;;;;6213076;23;19914;-68
2022/08/19 04:53:23;;;;;;;;;;;;;;;;;;6236646;22;19922;-69
2022/08/19 04:55:48;;;;;;;;;;;;;;;;;;6212852;23;19923;-69
2022/08/19 04:58:15;;;;;;;;;;;;;;;;;;6212595;23;20269;-69
2022/08/19 05:00:41;;;;;;;;;;;;;;;;;;6211922;23;19997;-69
2022/08/19 05:03:06;;;;;;;;;;;;;;;;;;6235954;23;20329;-69
2022/08/19 05:05:32;;;;;;;;;;;;;;;;;;6212255;23;19914;-69
2022/08/19 05:07:58;;;;;;;;;;;;;;;;;;6212034;23;20555;-69
2022/08/19 05:10:23;;;;;;;;;;;;;;;;;;6212413;23;19907;-69
2022/08/19 05:12:49;;;;;;;;;;;;;;;;;;6212121;23;19907;-68
2022/08/19 05:15:15;;;;;;;;;;;;;;;;;;6212629;23;19908;-68
2022/08/19 05:22:31;;;;;;;;;;;;;;;;;;6210718;23;19911;-69
2022/08/19 05:23:10;;;;;;;;;;;;;;;;;;6212482;23;19940;-69
2022/08/19 05:25:36;;;;;;;;;;;;;;;;;;6213945;23;20281;-70
2022/08/19 05:28:02;;;;;;;;;;;;;;;;;;6214395;23;19907;-70
2022/08/19 05:30:28;;;;;;;;;;;;;;;;;;6213966;23;20242;-69
2022/08/19 05:32:55;;;;;;;;;;;;;;;;;;6213689;23;20263;-69
2022/08/19 05:35:23;;;;;;;;;;;;;;;;;;6214518;23;19998;-69
2022/08/19 05:37:48;;;;;;;;;;;;;;;;;;6214097;23;20371;-69
2022/08/19 05:40:14;;;;;;;;;;;;;;;;;;6214181;23;19916;-68
2022/08/19 05:42:40;;;;;;;;;;;;;;;;;;6213425;23;20340;-69
2022/08/19 05:45:05;;;;;;;;;;;;;;;;;;6214263;23;19930;-70
2022/08/19 05:47:31;;;;;;;;;;;;;;;;;;6213467;23;19948;-69
2022/08/19 05:49:57;;;;;;;;;;;;;;;;;;6237710;23;19907;-67
2022/08/19 05:52:23;;;;;;;;;;;;;;;;;;6213841;23;20364;-69
2022/08/19 05:54:50;;;;;;;;;;;;;;;;;;6213984;23;19927;-68
2022/08/19 05:57:16;;;;;;;;;;;;;;;;;;6214092;23;19915;-67
2022/08/19 05:59:42;;;;;;;;;;;;;;;;;;6214189;23;19911;-68
2022/08/19 06:02:07;;;;;;;;;;;;;;;;;;6214102;23;20298;-69
2022/08/19 06:04:33;;;;;;;;;;;;;;;;;;6214210;23;19915;-69
2022/08/19 06:06:59;;;;;;;;;;;;;;;;;;6213912;23;19907;-69
2022/08/19 06:09:24;;;;;;;;;;;;;;;;;;6214188;23;20333;-69
2022/08/19 06:11:53;;;;;;;;;;;;;;;;;;6214031;23;19908;-69
2022/08/19 06:14:20;;;;;;;;;;;;;;;;;;6213590;23;19934;-69
2022/08/19 06:16:46;;;;;;;;;;;;;;;;;;6237063;23;20252;-68
2022/08/19 06:19:12;;;;;;;;;;;;;;;;;;6214132;23;19907;-69
2022/08/19 06:21:38;;;;;;;;;;;;;;;;;;6213859;23;19995;-69
2022/08/19 06:24:04;;;;;;;;;;;;;;;;;;6214189;23;19907;-69
2022/08/19 06:26:29;;;;;;;;;;;;;;;;;;6214086;23;19963;-68
2022/08/19 06:28:55;;;;;;;;;;;;;;;;;;6214363;23;19911;-68
2022/08/19 06:31:21;;;;;;;;;;;;;;;;;;6213884;23;20283;-68
2022/08/19 06:33:47;;;;;;;;;;;;;;;;;;6214185;23;19907;-68
2022/08/19 06:36:12;;;;;;;;;;;;;;;;;;6237684;23;19911;-68
2022/08/19 06:38:38;;;;;;;;;;;;;;;;;;6214010;23;19916;-69
2022/08/19 06:41:04;;;;;;;;;;;;;;;;;;6213859;23;19915;-69
2022/08/19 06:43:29;;;;;;;;;;;;;;;;;;6214069;23;20379;-68
2022/08/19 06:45:55;;;;;;;;;;;;;;;;;;6213254;23;19908;-69
2022/08/19 06:48:21;;;;;;;;;;;;;;;;;;6213416;23;20300;-69
2022/08/19 06:50:48;;;;;;;;;;;;;;;;;;6214282;23;19930;-69
2022/08/19 06:53:14;;;;;;;;;;;;;;;;;;6213509;23;19947;-70
2022/08/19 06:55:40;;;;;;;;;;;;;;;;;;6213834;23;20259;-70
2022/08/19 06:58:06;;;;;;;;;;;;;;;;;;6237592;23;20296;-70
2022/08/19 07:00:32;;;;;;;;;;;;;;;;;;6213928;23;19916;-69
2022/08/19 07:02:58;;;;;;;;;;;;;;;;;;6214433;23;19915;-68
2022/08/19 07:05:24;;;;;;;;;;;;;;;;;;6215835;23;19947;-69
2022/08/19 07:07:49;;;;;;;;;;;;;;;;;;6214126;23;19914;-69
2022/08/19 07:10:15;;;;;;;;;;;;;;;;;;6214172;23;19915;-68
2022/08/19 07:12:41;;;;;;;;;;;;;;;;;;6215453;23;19907;-69
2022/08/19 07:15:08;;;;;;;;;;;;;;;;;;6215062;23;19907;-69
2022/08/19 07:17:37;;;;;;;;;;;;;;;;;;6215278;23;19911;-68
2022/08/19 07:20:02;;;;;;;;;;;;;;;;;;6206639;23;20293;-68
2022/08/19 07:22:29;;;;;;;;;;;;;;;;;;6215085;23;19911;-69
2022/08/19 07:24:55;;;;;;;;;;;;;;;;;;6239129;23;19999;-68
2022/08/19 07:27:26;;;;;;;;;;;;;;;;;;6212533;23;19911;-68
2022/08/19 07:29:57;;;;;;;;;;;;;;;;;;6214953;23;19967;-70
2022/08/19 07:35:09;;;;;;;;;;;;;;;;;;6243873;23;19915;-67
2022/08/19 07:37:36;;;;;;;;;;;;;;;;;;6267210;22;20366;-69
2022/08/19 07:40:02;;;;;;;;;;;;;;;;;;6241706;23;20331;-67
2022/08/19 07:42:29;;;;;;;;;;;;;;;;;;6244305;23;19907;-66
2022/08/19 07:44:55;;;;;;;;;;;;;;;;;;6243489;23;19986;-69
2022/08/19 07:47:20;;;;;;;;;;;;;;;;;;6243337;23;19939;-66
2022/08/19 07:49:47;;;;;;;;;;;;;;;;;;6243252;23;20088;-68
2022/08/19 07:52:13;;;;;;;;;;;;;;;;;;6243708;23;19907;-67
2022/08/19 07:54:38;;;;;;;;;;;;;;;;;;6243703;23;20301;-67
2022/08/19 07:57:04;;;;;;;;;;;;;;;;;;6243245;23;19907;-67
2022/08/19 07:59:30;;;;;;;;;;;;;;;;;;6243625;23;20165;-65
2022/08/19 08:01:55;;;;;;;;;;;;;;;;;;6242895;23;19911;-67
2022/08/19 08:09:50;;;;;;;;;;;;;;;;;;6241382;23;19908;-67
2022/08/19 08:12:16;;;;;;;;;;;;;;;;;;6242681;23;19913;-67
2022/08/19 08:14:41;;;;;;;;;;;;;;;;;;6243004;23;19907;-67
2022/08/19 08:17:07;;;;;;;;;;;;;;;;;;6242852;23;19962;-68
2022/08/19 08:19:32;;;;;;;;;;;;;;;;;;6243185;23;19908;-68
2022/08/19 08:21:58;;;;;;;;;;;;;;;;;;6242805;23;19913;-66
2022/08/19 08:24:24;;;;;;;;;;;;;;;;;;6266991;22;20336;-67
2022/08/19 08:26:49;;;;;;;;;;;;;;;;;;6242808;23;19908;-68
2022/08/19 08:29:15;;;;;;;;;;;;;;;;;;6243509;23;19961;-68
2022/08/19 08:31:41;;;;;;;;;;;;;;;;;;6234223;23;19962;-67
2022/08/19 08:34:06;;;;;;;;;;;;;;;;;;6212383;23;19914;-67
2022/08/19 08:36:33;;;;;;;;;;;;;;;;;;6236574;23;20399;-67
2022/08/19 08:38:59;;;;;;;;;;;;;;;;;;6213752;23;20339;-67
2022/08/19 08:41:25;;;;;;;;;;;;;;;;;;6211176;23;19923;-68
2022/08/19 08:43:51;;;;;;;;;;;;;;;;;;6212317;23;19995;-67
2022/08/19 08:46:17;;;;;;;;;;;;;;;;;;6212616;23;19939;-65
2022/08/19 08:48:44;;;;;;;;;;;;;;;;;;6212424;23;19995;-67
2022/08/19 08:51:09;;;;;;;;;;;;;;;;;;6212429;23;19913;-68
2022/08/19 08:53:35;;;;;;;;;;;;;;;;;;6212622;23;19919;-69
2022/08/19 08:56:01;;;;;;;;;;;;;;;;;;6212604;23;19908;-68
2022/08/19 08:58:27;;;;;;;;;;;;;;;;;;6212925;23;20359;-68
2022/08/19 09:00:52;;;;;;;;;;;;;;;;;;6213074;23;19920;-68
2022/08/19 09:03:18;;;;;;;;;;;;;;;;;;6212244;23;20263;-67
2022/08/19 09:05:45;;;;;;;;;;;;;;;;;;6212761;23;19907;-66
2022/08/19 09:08:10;;;;;;;;;;;;;;;;;;6211285;23;19991;-67
2022/08/19 09:10:36;;;;;;;;;;;;;;;;;;6213845;23;19935;-66
2022/08/19 09:13:02;;;;;;;;;;;;;;;;;;6212110;23;19907;-67
2022/08/19 09:15:28;;;;;;;;;;;;;;;;;;6212533;23;19907;-67
2022/08/19 09:17:54;;;;;;;;;;;;;;;;;;6211978;23;19915;-66
2022/08/19 09:20:19;;;;;;;;;;;;;;;;;;6212186;23;19916;-66
2022/08/19 09:22:45;;;;;;;;;;;;;;;;;;6212270;23;20299;-67
2022/08/19 09:25:11;;;;;;;;;;;;;;;;;;6211829;23;20402;-67
2022/08/19 09:27:38;;;;;;;;;;;;;;;;;;6212148;23;19907;-67
2022/08/19 09:30:03;;;;;;;;;;;;;;;;;;6212098;23;19915;-67
2022/08/19 09:32:30;;;;;;;;;;;;;;;;;;6211475;23;19916;-66
2022/08/19 09:34:57;;;;;;;;;;;;;;;;;;6212129;23;19912;-68
2022/08/19 09:37:24;;;;;;;;;;;;;;;;;;6212237;23;19969;-67
2022/08/19 09:39:49;;;;;;;;;;;;;;;;;;6212464;23;20344;-68
2022/08/19 09:42:15;;;;;;;;;;;;;;;;;;6210865;23;20247;-66
2022/08/19 09:44:40;;;;;;;;;;;;;;;;;;6212401;23;19914;-65
2022/08/19 09:47:06;;;;;;;;;;;;;;;;;;6210472;23;19969;-67
2022/08/19 09:49:33;;;;;;;;;;;;;;;;;;6212828;23;19908;-67
2022/08/19 09:51:58;;;;;;;;;;;;;;;;;;6212253;23;20002;-66
2022/08/19 09:54:24;;;;;;;;;;;;;;;;;;6212745;23;19939;-67
2022/08/19 09:56:50;;;;;;;;;;;;;;;;;;6235850;23;19930;-66
2022/08/19 09:59:15;;;;;;;;;;;;;;;;;;6212593;23;19962;-68
2022/08/19 10:01:41;;;;;;;;;;;;;;;;;;6212890;23;19920;-67
2022/08/19 10:04:09;;;;;;;;;;;;;;;;;;6212724;23;19994;-67
2022/08/19 10:06:35;;;;;;;;;;;;;;;;;;6213023;23;19907;-67
2022/08/19 10:09:02;;;;;;;;;;;;;;;;;;6213020;23;20062;-66
2022/08/19 10:11:28;;;;;;;;;;;;;;;;;;6213532;23;19986;-68
2022/08/19 10:13:54;;;;;;;;;;;;;;;;;;6213159;23;20263;-67
2022/08/19 10:16:22;;;;;;;;;;;;;;;;;;6213276;23;19998;-67
2022/08/19 10:18:47;;;;;;;;;;;;;;;;;;6213434;23;19914;-66
2022/08/19 10:21:13;;;;;;;;;;;;;;;;;;6212711;23;20213;-66
2022/08/19 10:23:39;;;;;;;;;;;;;;;;;;6212514;23;19914;-67
2022/08/19 10:26:05;;;;;;;;;;;;;;;;;;6212780;23;19939;-68
2022/08/19 10:28:31;;;;;;;;;;;;;;;;;;6213288;23;19994;-67
2022/08/19 10:30:56;;;;;;;;;;;;;;;;;;6212981;23;19946;-67
2022/08/19 10:33:24;;;;;;;;;;;;;;;;;;6211977;23;19952;-65
2022/08/19 10:35:50;;;;;;;;;;;;;;;;;;6212575;23;19908;-67
2022/08/19 10:38:15;;;;;;;;;;;;;;;;;;6214237;23;20414;-66
2022/08/19 10:40:41;;;;;;;;;;;;;;;;;;6214539;23;19916;-66
2022/08/19 10:43:07;;;;;;;;;;;;;;;;;;6213632;23;19908;-67
2022/08/19 10:45:32;;;;;;;;;;;;;;;;;;6214197;23;19914;-68
2022/08/19 10:47:58;;;;;;;;;;;;;;;;;;6214348;23;19911;-66
2022/08/19 10:53:10;;;;;;;;;;;;;;;;;;6214058;23;19990;-67
2022/08/19 10:58:25;;;;;;;;;;;;;;;;;;6214404;23;19911;-66
2022/08/19 11:00:51;;;;;;;;;;;;;;;;;;6214924;23;20276;-67
2022/08/19 11:03:16;;;;;;;;;;;;;;;;;;6214223;23;19908;-67
2022/08/19 11:05:42;;;;;;;;;;;;;;;;;;6214778;23;19908;-67
2022/08/19 11:08:11;;;;;;;;;;;;;;;;;;6212914;23;19987;-68
2022/08/19 11:10:37;;;;;;;;;;;;;;;;;;6214756;23;19907;-68
2022/08/19 11:13:02;;;;;;;;;;;;;;;;;;6214293;23;19930;-68
2022/08/19 11:15:30;;;;;;;;;;;;;;;;;;6214312;23;19908;-67
2022/08/19 11:17:56;;;;;;;;;;;;;;;;;;6214451;23;20760;-67
2022/08/19 11:20:23;;;;;;;;;;;;;;;;;;6212873;23;19916;-67
2022/08/19 11:22:49;;;;;;;;;;;;;;;;;;6214107;23;19915;-66
2022/08/19 11:25:14;;;;;;;;;;;;;;;;;;6213386;23;19908;-67
2022/08/19 11:27:44;;;;;;;;;;;;;;;;;;6213793;23;19982;-67
2022/08/19 11:30:10;;;;;;;;;;;;;;;;;;6214507;23;19908;-66
2022/08/19 11:32:36;;;;;;;;;;;;;;;;;;6214153;23;20379;-66
2022/08/19 11:35:02;;;;;;;;;;;;;;;;;;6212531;23;19923;-67
2022/08/19 11:37:28;;;;;;;;;;;;;;;;;;6214332;23;19908;-67
2022/08/19 11:39:54;;;;;;;;;;;;;;;;;;6214010;23;19998;-69
2022/08/19 11:45:04;;;;;;;;;;;;;;;;;;6214049;23;19907;-65
2022/08/19 11:47:30;;;;;;;;;;;;;;;;;;6213661;23;19911;-67
2022/08/19 11:49:56;;;;;;;;;;;;;;;;;;6213716;23;19927;-68
2022/08/19 11:52:21;;;;;;;;;;;;;;;;;;6213531;23;19915;-67
2022/08/19 11:54:47;;;;;;;;;;;;;;;;;;6213170;23;19908;-66
2022/08/19 11:57:16;;;;;;;;;;;;;;;;;;6212301;23;19908;-66
2022/08/19 11:59:42;;;;;;;;;;;;;;;;;;6213384;23;19970;-67
2022/08/19 12:02:07;;;;;;;;;;;;;;;;;;6213625;23;19911;-66
2022/08/19 12:04:33;;;;;;;;;;;;;;;;;;6214057;23;19911;-66
2022/08/19 12:06:59;;;;;;;;;;;;;;;;;;6213442;23;20201;-67
2022/08/19 12:09:24;;;;;;;;;;;;;;;;;;6212385;23;19908;-67
2022/08/19 12:11:50;;;;;;;;;;;;;;;;;;6214131;23;20380;-67
2022/08/19 12:14:16;;;;;;;;;;;;;;;;;;6213302;23;19919;-67
2022/08/19 12:16:42;;;;;;;;;;;;;;;;;;6214004;23;19958;-66
2022/08/19 12:19:07;;;;;;;;;;;;;;;;;;6213752;23;19907;-66
2022/08/19 12:21:33;;;;;;;;;;;;;;;;;;6213964;23;19998;-66
2022/08/19 12:23:58;;;;;;;;;;;;;;;;;;6212977;23;19907;-68
2022/08/19 12:26:24;;;;;;;;;;;;;;;;;;6212700;23;19908;-66
2022/08/19 12:28:50;;;;;;;;;;;;;;;;;;6214397;23;20337;-67
2022/08/19 12:31:16;;;;;;;;;;;;;;;;;;6213698;23;20006;-68
2022/08/19 12:33:41;;;;;;;;;;;;;;;;;;6213323;23;19923;-67
2022/08/19 12:36:07;;;;;;;;;;;;;;;;;;6213118;23;20352;-68
2022/08/19 12:38:34;;;;;;;;;;;;;;;;;;6213987;23;19923;-67
2022/08/19 12:40:59;;;;;;;;;;;;;;;;;;6213828;23;20018;-66
2022/08/19 12:43:26;;;;;;;;;;;;;;;;;;6214224;23;20226;-67
2022/08/19 12:45:51;;;;;;;;;;;;;;;;;;6214222;23;19907;-66
2022/08/19 12:48:18;;;;;;;;;;;;;;;;;;6212602;23;19915;-66
2022/08/19 12:50:45;;;;;;;;;;;;;;;;;;6214051;23;20252;-65
2022/08/19 12:53:10;;;;;;;;;;;;;;;;;;6213789;23;19961;-67
2022/08/19 12:55:36;;;;;;;;;;;;;;;;;;6213995;23;19945;-66
2022/08/19 12:58:02;;;;;;;;;;;;;;;;;;6237461;23;19933;-70
2022/08/19 13:00:27;;;;;;;;;;;;;;;;;;6213394;23;19996;-68
2022/08/19 13:02:53;;;;;;;;;;;;;;;;;;6214028;23;19931;-67
2022/08/19 13:05:22;;;;;;;;;;;;;;;;;;6213371;23;19908;-67
2022/08/19 13:07:48;;;;;;;;;;;;;;;;;;6213403;23;19915;-67
2022/08/19 13:10:15;;;;;;;;;;;;;;;;;;6213382;23;19908;-65
2022/08/19 13:12:41;;;;;;;;;;;;;;;;;;6213540;23;19932;-67
2022/08/19 13:15:08;;;;;;;;;;;;;;;;;;6213120;23;20190;-66
2022/08/19 13:17:34;;;;;;;;;;;;;;;;;;6213374;23;20260;-67
2022/08/19 13:19:59;;;;;;;;;;;;;;;;;;6212132;23;19923;-67
2022/08/19 13:22:25;;;;;;;;;;;;;;;;;;6211475;23;20180;-66
2022/08/19 13:24:50;;;;;;;;;;;;;;;;;;6209393;23;20344;-66
2022/08/19 13:27:16;;;;;;;;;;;;;;;;;;6211907;23;19918;-67
2022/08/19 13:35:11;;;;;;;;;;;;;;;;;;6213228;23;20342;-67
2022/08/19 13:37:42;;;;;;;;;;;;;;;;;;6211768;23;19908;-69
2022/08/19 13:40:11;;;;;;;;;;;;;;;;;;6212821;23;19915;-67
2022/08/19 13:42:37;;;;;;;;;;;;;;;;;;6213109;23;19947;-69
2022/08/19 13:45:04;;;;;;;;;;;;;;;;;;6214019;23;19908;-68
2022/08/19 13:47:30;;;;;;;;;;;;;;;;;;6214249;23;19958;-66
2022/08/19 13:49:55;;;;;;;;;;;;;;;;;;6213233;23;19943;-67
2022/08/19 13:52:21;;;;;;;;;;;;;;;;;;6213083;23;19927;-67
2022/08/19 13:54:47;;;;;;;;;;;;;;;;;;6212686;23;19907;-67
2022/08/19 13:57:13;;;;;;;;;;;;;;;;;;6213127;23;19907;-68
2022/08/19 13:59:39;;;;;;;;;;;;;;;;;;6213488;23;20034;-67
2022/08/19 14:02:05;;;;;;;;;;;;;;;;;;6213234;23;19922;-67
2022/08/19 14:04:30;;;;;;;;;;;;;;;;;;6213197;23;19907;-66
2022/08/19 14:06:56;;;;;;;;;;;;;;;;;;6213179;23;20375;-66
2022/08/19 14:09:22;;;;;;;;;;;;;;;;;;6212198;23;19935;-68
2022/08/19 14:11:49;;;;;;;;;;;;;;;;;;6212999;23;20385;-67
2022/08/19 14:14:15;;;;;;;;;;;;;;;;;;6214475;23;19994;-68
2022/08/19 14:16:42;;;;;;;;;;;;;;;;;;6214905;23;20005;-68
2022/08/19 14:19:08;;;;;;;;;;;;;;;;;;6214440;23;19915;-68
2022/08/19 14:21:34;;;;;;;;;;;;;;;;;;6214922;23;20256;-68
2022/08/19 14:23:59;;;;;;;;;;;;;;;;;;6214942;23;19922;-68
2022/08/19 14:26:25;;;;;;;;;;;;;;;;;;6214536;23;19986;-68
2022/08/19 14:28:52;;;;;;;;;;;;;;;;;;6214955;23;20057;-68
2022/08/19 14:31:19;;;;;;;;;;;;;;;;;;6237445;23;20276;-68
2022/08/19 14:33:44;;;;;;;;;;;;;;;;;;6213847;23;19970;-66
2022/08/19 14:36:10;;;;;;;;;;;;;;;;;;6213826;23;20166;-65
2022/08/19 14:38:36;;;;;;;;;;;;;;;;;;6213607;23;19912;-67
2022/08/19 14:41:02;;;;;;;;;;;;;;;;;;6213664;23;19916;-67
2022/08/19 14:43:28;;;;;;;;;;;;;;;;;;6213888;23;19915;-68
2022/08/19 14:45:53;;;;;;;;;;;;;;;;;;6214177;23;20268;-67
2022/08/19 14:48:21;;;;;;;;;;;;;;;;;;6213138;23;20251;-67
2022/08/19 14:50:47;;;;;;;;;;;;;;;;;;6214123;23;19911;-69
2022/08/19 14:53:12;;;;;;;;;;;;;;;;;;6213445;23;19907;-67
2022/08/19 14:55:38;;;;;;;;;;;;;;;;;;6213945;23;20344;-68
2022/08/19 14:58:03;;;;;;;;;;;;;;;;;;6213818;23;19911;-67
2022/08/19 15:00:29;;;;;;;;;;;;;;;;;;6211849;23;19916;-67
2022/08/19 15:02:55;;;;;;;;;;;;;;;;;;6213611;23;19914;-67
2022/08/19 15:05:20;;;;;;;;;;;;;;;;;;6213004;23;19908;-72
2022/08/19 15:07:46;;;;;;;;;;;;;;;;;;6213170;23;19951;-66
2022/08/19 15:10:12;;;;;;;;;;;;;;;;;;6212579;23;19907;-67
2022/08/19 15:12:39;;;;;;;;;;;;;;;;;;6237014;23;19911;-68
2022/08/19 15:15:05;;;;;;;;;;;;;;;;;;6212952;23;19912;-68
2022/08/19 15:17:30;;;;;;;;;;;;;;;;;;6211604;23;19930;-68
2022/08/19 15:19:56;;;;;;;;;;;;;;;;;;6212209;23;19912;-67
2022/08/19 15:22:21;;;;;;;;;;;;;;;;;;6212850;23;19962;-68
2022/08/19 15:24:47;;;;;;;;;;;;;;;;;;6212889;23;19914;-67
2022/08/19 15:27:13;;;;;;;;;;;;;;;;;;6212960;23;19908;-67
2022/08/19 15:29:38;;;;;;;;;;;;;;;;;;6212780;23;19908;-68
2022/08/19 15:32:06;;;;;;;;;;;;;;;;;;6212683;23;19915;-70
2022/08/19 15:34:32;;;;;;;;;;;;;;;;;;6212831;23;19908;-68
2022/08/19 15:36:58;;;;;;;;;;;;;;;;;;6212883;23;19908;-69
2022/08/19 15:39:24;;;;;;;;;;;;;;;;;;6212425;23;20399;-68
2022/08/19 15:41:50;;;;;;;;;;;;;;;;;;6211054;23;19915;-68
2022/08/19 15:44:17;;;;;;;;;;;;;;;;;;6212295;23;19923;-68
2022/08/19 15:46:42;;;;;;;;;;;;;;;;;;6213000;23;19908;-68
2022/08/19 15:49:08;;;;;;;;;;;;;;;;;;6213016;23;19914;-68
2022/08/19 15:51:34;;;;;;;;;;;;;;;;;;6213040;23;19990;-68
2022/08/19 15:54:00;;;;;;;;;;;;;;;;;;6212819;23;20041;-66
2022/08/19 15:56:25;;;;;;;;;;;;;;;;;;6212748;23;20315;-68
2022/08/19 16:07:07;;;;;;;;;;;;;;;;;;6213152;23;19907;-70
2022/08/19 16:09:33;;;;;;;;;;;;;;;;;;6212787;23;19983;-66
2022/08/19 16:12:00;;;;;;;;;;;;;;;;;;6212896;23;19911;-68
2022/08/19 16:14:25;;;;;;;;;;;;;;;;;;6211179;23;19908;-67
2022/08/19 16:16:51;;;;;;;;;;;;;;;;;;6213756;23;20300;-66
2022/08/19 16:19:18;;;;;;;;;;;;;;;;;;6212753;23;19910;-66
2022/08/19 16:21:44;;;;;;;;;;;;;;;;;;6212526;23;20260;-67
2022/08/19 16:24:10;;;;;;;;;;;;;;;;;;6212739;23;19908;-67
2022/08/19 16:26:36;;;;;;;;;;;;;;;;;;6213208;23;20011;-68
2022/08/19 16:29:01;;;;;;;;;;;;;;;;;;6212933;23;19939;-67
2022/08/19 16:31:27;;;;;;;;;;;;;;;;;;6213347;23;19908;-67
2022/08/19 16:33:53;;;;;;;;;;;;;;;;;;6212790;23;20336;-68
2022/08/19 16:36:19;;;;;;;;;;;;;;;;;;6212563;23;19946;-66
2022/08/19 16:38:48;;;;;;;;;;;;;;;;;;6212908;23;20021;-65
2022/08/19 16:41:13;;;;;;;;;;;;;;;;;;6212769;23;19915;-68
2022/08/19 16:43:39;;;;;;;;;;;;;;;;;;6212974;23;19915;-67
2022/08/19 16:46:05;;;;;;;;;;;;;;;;;;6212847;23;19915;-68
2022/08/19 16:48:31;;;;;;;;;;;;;;;;;;6211948;23;19919;-68
2022/08/19 16:50:57;;;;;;;;;;;;;;;;;;6212595;23;19908;-67
2022/08/19 16:53:25;;;;;;;;;;;;;;;;;;6212092;23;19931;-67
2022/08/19 16:55:52;;;;;;;;;;;;;;;;;;6212238;23;20363;-67
2022/08/19 16:58:18;;;;;;;;;;;;;;;;;;6160568;23;19916;-66
2022/08/19 17:00:44;;;;;;;;;;;;;;;;;;6212479;23;19922;-67
2022/08/19 17:03:09;;;;;;;;;;;;;;;;;;6212478;23;19939;-66
2022/08/19 17:05:35;;;;;;;;;;;;;;;;;;6211624;23;20316;-68
2022/08/19 17:08:01;;;;;;;;;;;;;;;;;;6212005;23;19908;-68
2022/08/19 17:10:26;;;;;;;;;;;;;;;;;;6211188;23;19959;-68
2022/08/19 17:12:53;;;;;;;;;;;;;;;;;;6211853;23;20123;-68